»·PEaware :: N39921 KWHP-KBFL

N39921 :: KWHP-KBFL

FLIGHT INFORMATION

Flight Status: Arrived
Operator: Privately registered:
United States
More flights under this callsign
Pilot: Nickolaus B. (17683)
Aircraft: PIPER PA-32 SARATOGA
(PA32)
More flights by this aircraft type
Origin: KWHP Whiteman
United States
Destination: KBFL Meadows
United States
More flights between these airports :: More routes between these airports
Route: +
File this flight plan on PilotEdge
Remarks:
Altitude:
(Current/Filed)
8,500ft
Speed:
(Current/Filed)
160kts
Departed: 10-Jan-18 09:54 PM
Arrived: 10-Jan-18 10:34 PM
Distance/Time
Traveled:
77nm/0:39
Distance/Time
To Go:
Arrived

Flight Plot

Page will automatically refresh every two minutes.


Map Options




Map Legend


Flown Route
Filed Route
Departure Airport
Arrival Airport
Navaid (VOR, NDB)
Fix

Horizontal Profiles

Position Reports

Time Latitude Longitude Heading Altitude Ground
Speed
10-Jan-18 21:55 34.258226 -118.411396 318 984ft 0kts
10-Jan-18 21:56 34.258279 -118.411485 277 984ft 3kts
10-Jan-18 21:57 34.255936 -118.409200 139 971ft 14kts
10-Jan-18 21:58 34.255735 -118.408992 139 970ft 0kts
10-Jan-18 21:59 34.255565 -118.408893 168 970ft 0kts
10-Jan-18 22:00 34.257535 -118.411589 319 981ft 73kts
10-Jan-18 22:01 34.275629 -118.437342 311 2025ft 116kts
10-Jan-18 22:02 34.287773 -118.470464 247 3230ft 148kts
10-Jan-18 22:03 34.282837 -118.509204 308 4480ft 120kts
10-Jan-18 22:04 34.317025 -118.523707 344 5037ft 125kts
10-Jan-18 22:05 34.346974 -118.536365 343 6293ft 106kts
10-Jan-18 22:06 34.372382 -118.548069 341 7551ft 93kts
10-Jan-18 22:07 34.395844 -118.559036 341 8443ft 108kts
10-Jan-18 22:08 34.428213 -118.574188 340 8515ft 136kts
10-Jan-18 22:09 34.458538 -118.588539 340 8519ft 143kts
10-Jan-18 22:10 34.502094 -118.609261 340 8526ft 145kts
10-Jan-18 22:11 34.539708 -118.627182 340 8530ft 146kts
10-Jan-18 22:12 34.571186 -118.642192 340 8533ft 147kts
10-Jan-18 22:13 34.608159 -118.659831 338 8543ft 146kts
10-Jan-18 22:14 34.650179 -118.679913 337 8558ft 145kts
10-Jan-18 22:15 34.671595 -118.690160 337 8567ft 144kts
10-Jan-18 22:16 34.708390 -118.707781 336 8587ft 143kts
10-Jan-18 22:17 34.745118 -118.725412 336 8604ft 143kts
10-Jan-18 22:18 34.782514 -118.743361 336 8485ft 146kts
10-Jan-18 22:19 34.819532 -118.761137 336 8492ft 145kts
10-Jan-18 22:20 34.853204 -118.768124 35 8531ft 162kts
10-Jan-18 22:21 34.883003 -118.755902 334 8970ft 131kts
10-Jan-18 22:22 34.918450 -118.772701 340 8998ft 149kts
10-Jan-18 22:23 34.957686 -118.787675 340 8998ft 157kts
10-Jan-18 22:24 34.999757 -118.804136 340 8998ft 163kts
10-Jan-18 22:25 35.045120 -118.822376 340 8235ft 178kts
10-Jan-18 22:26 35.090584 -118.834608 0 7260ft 161kts
10-Jan-18 22:27 35.131044 -118.833796 1 6324ft 139kts
10-Jan-18 22:28 35.163224 -118.843651 342 5352ft 108kts
10-Jan-18 22:29 35.189767 -118.856831 341 5004ft 109kts
10-Jan-18 22:30 35.219213 -118.871330 341 4625ft 121kts
10-Jan-18 22:31 35.250554 -118.886210 341 3486ft 121kts
10-Jan-18 22:32 35.281888 -118.900423 341 2519ft 126kts
10-Jan-18 22:33 35.315071 -118.918323 330 2497ft 129kts
10-Jan-18 22:34 35.339619 -118.943599 317 2497ft 106kts
10-Jan-18 22:35 35.359450 -118.966978 316 2438ft 112kts
10-Jan-18 22:36 35.378216 -118.989543 315 2000ft 103kts
10-Jan-18 22:37 35.400019 -119.015620 316 1393ft 109kts
10-Jan-18 22:38 35.418736 -119.038142 316 881ft 92kts
10-Jan-18 22:39 35.436055 -119.058773 315 489ft 61kts
10-Jan-18 22:40 35.439773 -119.062672 356 496ft 11kts
10-Jan-18 22:41 35.440336 -119.062680 2 498ft 1kts
10-Jan-18 22:42 35.439922 -119.061301 136 499ft 10kts
10-Jan-18 22:43 35.437745 -119.058677 135 496ft 8kts
10-Jan-18 22:44 35.436090 -119.056672 135 493ft 11kts
10-Jan-18 22:45 35.433493 -119.053527 133 492ft 13kts
10-Jan-18 22:46 35.430992 -119.050519 133 492ft 12kts
10-Jan-18 22:47 35.428361 -119.047356 134 488ft 13kts
10-Jan-18 22:48 35.425754 -119.044140 125 481ft 6kts
10-Jan-18 22:49 35.425140 -119.042536 21 480ft 2kts

Navigation Log

Ident Type
1. KWHP Airport
2. KBFL Airport